sensor_id;sensor_type;location;lat;lon;timestamp;temperature;humidity
7648;DHT22;3866;48.020;11.720;2023-08-07T00:01:35;11.40;99.90
7648;DHT22;3866;48.020;11.720;2023-08-07T00:04:02;11.40;99.90
7648;DHT22;3866;48.020;11.720;2023-08-07T00:06:29;11.40;99.90
7648;DHT22;3866;48.020;11.720;2023-08-07T00:08:58;11.40;99.90
7648;DHT22;3866;48.020;11.720;2023-08-07T00:11:24;11.40;99.90
7648;DHT22;3866;48.020;11.720;2023-08-07T00:13:53;11.40;99.90
7648;DHT22;3866;48.020;11.720;2023-08-07T00:16:20;11.40;99.90
7648;DHT22;3866;48.020;11.720;2023-08-07T00:18:47;11.40;99.90
7648;DHT22;3866;48.020;11.720;2023-08-07T00:21:13;11.40;99.90
7648;DHT22;3866;48.020;11.720;2023-08-07T00:23:40;11.40;99.90
7648;DHT22;3866;48.020;11.720;2023-08-07T00:26:08;11.30;99.90
7648;DHT22;3866;48.020;11.720;2023-08-07T00:28:35;11.30;99.90
7648;DHT22;3866;48.020;11.720;2023-08-07T00:31:02;11.40;99.90
7648;DHT22;3866;48.020;11.720;2023-08-07T00:33:29;11.40;99.90
7648;DHT22;3866;48.020;11.720;2023-08-07T00:35:56;11.40;99.90
7648;DHT22;3866;48.020;11.720;2023-08-07T00:38:22;11.40;99.90
7648;DHT22;3866;48.020;11.720;2023-08-07T00:40:49;11.40;99.90
7648;DHT22;3866;48.020;11.720;2023-08-07T00:43:17;11.30;99.90
7648;DHT22;3866;48.020;11.720;2023-08-07T00:45:46;11.20;99.90
7648;DHT22;3866;48.020;11.720;2023-08-07T00:48:15;11.10;99.90
7648;DHT22;3866;48.020;11.720;2023-08-07T00:50:42;11.10;99.90
7648;DHT22;3866;48.020;11.720;2023-08-07T00:53:11;11.10;99.90
7648;DHT22;3866;48.020;11.720;2023-08-07T00:55:38;11.10;99.90
7648;DHT22;3866;48.020;11.720;2023-08-07T00:58:08;11.10;99.90
7648;DHT22;3866;48.020;11.720;2023-08-07T01:00:36;11.10;99.90
7648;DHT22;3866;48.020;11.720;2023-08-07T01:03:04;11.00;99.90
7648;DHT22;3866;48.020;11.720;2023-08-07T01:05:31;10.80;99.90
7648;DHT22;3866;48.020;11.720;2023-08-07T01:07:58;10.80;99.90
7648;DHT22;3866;48.020;11.720;2023-08-07T01:10:33;10.70;99.90
7648;DHT22;3866;48.020;11.720;2023-08-07T01:13:10;10.50;99.90
7648;DHT22;3866;48.020;11.720;2023-08-07T01:15:42;10.50;99.90
7648;DHT22;3866;48.020;11.720;2023-08-07T01:18:09;10.30;99.90
7648;DHT22;3866;48.020;11.720;2023-08-07T01:20:36;10.30;99.90
7648;DHT22;3866;48.020;11.720;2023-08-07T01:23:04;10.20;99.90
7648;DHT22;3866;48.020;11.720;2023-08-07T01:25:39;10.10;99.90
7648;DHT22;3866;48.020;11.720;2023-08-07T01:28:11;10.10;99.90
7648;DHT22;3866;48.020;11.720;2023-08-07T01:30:46;10.00;99.90
7648;DHT22;3866;48.020;11.720;2023-08-07T01:33:19;10.00;99.90
7648;DHT22;3866;48.020;11.720;2023-08-07T01:35:53;9.90;99.90
7648;DHT22;3866;48.020;11.720;2023-08-07T01:38:21;10.00;99.90
7648;DHT22;3866;48.020;11.720;2023-08-07T01:40:53;9.90;99.90
7648;DHT22;3866;48.020;11.720;2023-08-07T01:43:21;9.80;99.90
7648;DHT22;3866;48.020;11.720;2023-08-07T01:45:47;9.90;99.90
7648;DHT22;3866;48.020;11.720;2023-08-07T01:48:14;9.80;99.90
7648;DHT22;3866;48.020;11.720;2023-08-07T01:50:41;9.70;99.90
7648;DHT22;3866;48.020;11.720;2023-08-07T01:53:08;9.70;99.90
7648;DHT22;3866;48.020;11.720;2023-08-07T01:55:35;9.70;99.90
7648;DHT22;3866;48.020;11.720;2023-08-07T01:58:03;9.70;99.90
7648;DHT22;3866;48.020;11.720;2023-08-07T02:00:30;9.60;99.90
7648;DHT22;3866;48.020;11.720;2023-08-07T02:02:57;9.60;99.90
7648;DHT22;3866;48.020;11.720;2023-08-07T02:05:24;9.60;99.90
7648;DHT22;3866;48.020;11.720;2023-08-07T02:07:51;9.60;99.90
7648;DHT22;3866;48.020;11.720;2023-08-07T02:10:18;9.50;99.90
7648;DHT22;3866;48.020;11.720;2023-08-07T02:12:45;9.50;99.90
7648;DHT22;3866;48.020;11.720;2023-08-07T02:15:13;9.50;99.90
7648;DHT22;3866;48.020;11.720;2023-08-07T02:17:39;9.40;99.90
7648;DHT22;3866;48.020;11.720;2023-08-07T02:20:07;9.40;99.90
7648;DHT22;3866;48.020;11.720;2023-08-07T02:22:34;9.40;99.90
7648;DHT22;3866;48.020;11.720;2023-08-07T02:25:01;9.50;99.90
7648;DHT22;3866;48.020;11.720;2023-08-07T02:27:28;9.40;99.90
7648;DHT22;3866;48.020;11.720;2023-08-07T02:29:55;9.40;99.90
7648;DHT22;3866;48.020;11.720;2023-08-07T02:32:23;9.40;99.90
7648;DHT22;3866;48.020;11.720;2023-08-07T02:34:50;9.40;99.90
7648;DHT22;3866;48.020;11.720;2023-08-07T02:37:17;9.40;99.90
7648;DHT22;3866;48.020;11.720;2023-08-07T02:39:44;9.40;99.90
7648;DHT22;3866;48.020;11.720;2023-08-07T02:42:11;9.40;99.90
7648;DHT22;3866;48.020;11.720;2023-08-07T02:44:38;9.40;99.90
7648;DHT22;3866;48.020;11.720;2023-08-07T02:47:05;9.40;99.90
7648;DHT22;3866;48.020;11.720;2023-08-07T02:49:33;9.50;99.90
7648;DHT22;3866;48.020;11.720;2023-08-07T02:52:00;9.50;99.90
7648;DHT22;3866;48.020;11.720;2023-08-07T02:54:27;9.50;99.90
7648;DHT22;3866;48.020;11.720;2023-08-07T02:56:54;9.50;99.90
7648;DHT22;3866;48.020;11.720;2023-08-07T02:59:21;9.50;99.90
7648;DHT22;3866;48.020;11.720;2023-08-07T03:01:47;9.50;99.90
7648;DHT22;3866;48.020;11.720;2023-08-07T03:04:14;9.50;99.90
7648;DHT22;3866;48.020;11.720;2023-08-07T03:06:42;9.50;99.90
7648;DHT22;3866;48.020;11.720;2023-08-07T03:09:09;9.60;99.90
7648;DHT22;3866;48.020;11.720;2023-08-07T03:11:36;9.60;99.90
7648;DHT22;3866;48.020;11.720;2023-08-07T03:14:03;9.60;99.90
7648;DHT22;3866;48.020;11.720;2023-08-07T03:16:30;9.60;99.90
7648;DHT22;3866;48.020;11.720;2023-08-07T03:18:57;9.70;99.90
7648;DHT22;3866;48.020;11.720;2023-08-07T03:21:24;9.60;99.90
7648;DHT22;3866;48.020;11.720;2023-08-07T03:23:53;9.70;99.90
7648;DHT22;3866;48.020;11.720;2023-08-07T03:26:20;9.70;99.90
7648;DHT22;3866;48.020;11.720;2023-08-07T03:28:47;9.70;99.90
7648;DHT22;3866;48.020;11.720;2023-08-07T03:31:14;9.70;99.90
7648;DHT22;3866;48.020;11.720;2023-08-07T03:33:41;9.70;99.90
7648;DHT22;3866;48.020;11.720;2023-08-07T03:36:08;9.80;99.90
7648;DHT22;3866;48.020;11.720;2023-08-07T03:38:35;9.80;99.90
7648;DHT22;3866;48.020;11.720;2023-08-07T03:41:03;9.90;99.90
7648;DHT22;3866;48.020;11.720;2023-08-07T03:43:30;9.90;99.90
7648;DHT22;3866;48.020;11.720;2023-08-07T03:45:57;9.90;99.90
7648;DHT22;3866;48.020;11.720;2023-08-07T03:48:24;9.90;99.90
7648;DHT22;3866;48.020;11.720;2023-08-07T03:50:51;9.90;99.90
7648;DHT22;3866;48.020;11.720;2023-08-07T03:53:18;9.90;99.90
7648;DHT22;3866;48.020;11.720;2023-08-07T03:55:49;9.90;99.90
7648;DHT22;3866;48.020;11.720;2023-08-07T03:58:18;9.90;99.90
7648;DHT22;3866;48.020;11.720;2023-08-07T04:00:45;10.00;99.90
7648;DHT22;3866;48.020;11.720;2023-08-07T04:03:12;10.00;99.90
7648;DHT22;3866;48.020;11.720;2023-08-07T04:05:38;10.10;99.90
7648;DHT22;3866;48.020;11.720;2023-08-07T04:08:05;10.10;99.90
7648;DHT22;3866;48.020;11.720;2023-08-07T04:10:32;10.10;99.90
7648;DHT22;3866;48.020;11.720;2023-08-07T04:12:59;10.10;99.90
7648;DHT22;3866;48.020;11.720;2023-08-07T04:15:27;10.10;99.90
7648;DHT22;3866;48.020;11.720;2023-08-07T04:17:54;10.10;99.90
7648;DHT22;3866;48.020;11.720;2023-08-07T04:20:21;10.10;99.90
7648;DHT22;3866;48.020;11.720;2023-08-07T04:22:48;10.20;99.90
7648;DHT22;3866;48.020;11.720;2023-08-07T04:25:15;10.20;99.90
7648;DHT22;3866;48.020;11.720;2023-08-07T04:27:42;10.30;99.90
7648;DHT22;3866;48.020;11.720;2023-08-07T04:30:10;10.30;99.90
7648;DHT22;3866;48.020;11.720;2023-08-07T04:32:39;10.30;99.90
7648;DHT22;3866;48.020;11.720;2023-08-07T04:35:07;10.30;99.90
7648;DHT22;3866;48.020;11.720;2023-08-07T04:37:34;10.30;99.90
7648;DHT22;3866;48.020;11.720;2023-08-07T04:40:01;10.30;99.90
7648;DHT22;3866;48.020;11.720;2023-08-07T04:42:28;10.30;99.90
7648;DHT22;3866;48.020;11.720;2023-08-07T04:44:55;10.30;99.90
7648;DHT22;3866;48.020;11.720;2023-08-07T04:47:22;10.30;99.90
7648;DHT22;3866;48.020;11.720;2023-08-07T04:49:50;10.40;99.90
7648;DHT22;3866;48.020;11.720;2023-08-07T04:52:17;10.50;99.90
7648;DHT22;3866;48.020;11.720;2023-08-07T04:54:44;10.50;99.90
7648;DHT22;3866;48.020;11.720;2023-08-07T04:57:11;10.50;99.90
7648;DHT22;3866;48.020;11.720;2023-08-07T04:59:38;10.50;99.90
7648;DHT22;3866;48.020;11.720;2023-08-07T05:02:05;10.60;99.90
7648;DHT22;3866;48.020;11.720;2023-08-07T05:04:32;10.60;99.90
7648;DHT22;3866;48.020;11.720;2023-08-07T05:07:00;10.50;99.90
7648;DHT22;3866;48.020;11.720;2023-08-07T05:09:27;10.60;99.90
7648;DHT22;3866;48.020;11.720;2023-08-07T05:11:54;10.60;99.90
7648;DHT22;3866;48.020;11.720;2023-08-07T05:14:21;10.60;99.90
7648;DHT22;3866;48.020;11.720;2023-08-07T05:16:48;10.70;99.90
7648;DHT22;3866;48.020;11.720;2023-08-07T05:19:15;10.70;99.90
7648;DHT22;3866;48.020;11.720;2023-08-07T05:21:41;10.70;99.90
7648;DHT22;3866;48.020;11.720;2023-08-07T05:24:10;10.70;99.90
7648;DHT22;3866;48.020;11.720;2023-08-07T05:26:37;10.70;99.90
7648;DHT22;3866;48.020;11.720;2023-08-07T05:29:04;10.70;99.90
7648;DHT22;3866;48.020;11.720;2023-08-07T05:31:32;10.80;99.90
7648;DHT22;3866;48.020;11.720;2023-08-07T05:33:59;10.80;99.90
7648;DHT22;3866;48.020;11.720;2023-08-07T05:36:26;10.80;99.90
7648;DHT22;3866;48.020;11.720;2023-08-07T05:38:53;10.70;99.90
7648;DHT22;3866;48.020;11.720;2023-08-07T05:41:21;10.70;99.90
7648;DHT22;3866;48.020;11.720;2023-08-07T05:43:48;10.80;99.90
7648;DHT22;3866;48.020;11.720;2023-08-07T05:46:15;10.80;99.90
7648;DHT22;3866;48.020;11.720;2023-08-07T05:48:41;10.80;99.90
7648;DHT22;3866;48.020;11.720;2023-08-07T05:51:08;10.80;99.90
7648;DHT22;3866;48.020;11.720;2023-08-07T05:53:35;10.80;99.90
7648;DHT22;3866;48.020;11.720;2023-08-07T05:56:02;10.80;99.90
7648;DHT22;3866;48.020;11.720;2023-08-07T05:58:30;10.80;99.90
7648;DHT22;3866;48.020;11.720;2023-08-07T06:00:57;10.80;99.90
7648;DHT22;3866;48.020;11.720;2023-08-07T06:03:24;10.80;99.90
7648;DHT22;3866;48.020;11.720;2023-08-07T06:05:51;10.90;99.90
7648;DHT22;3866;48.020;11.720;2023-08-07T06:08:18;10.90;99.90
7648;DHT22;3866;48.020;11.720;2023-08-07T06:10:44;11.00;99.90
7648;DHT22;3866;48.020;11.720;2023-08-07T06:13:11;11.00;99.90
7648;DHT22;3866;48.020;11.720;2023-08-07T06:15:39;11.00;99.90
7648;DHT22;3866;48.020;11.720;2023-08-07T06:18:06;11.00;99.90
7648;DHT22;3866;48.020;11.720;2023-08-07T06:20:34;11.10;99.90
7648;DHT22;3866;48.020;11.720;2023-08-07T06:23:00;11.10;99.90
7648;DHT22;3866;48.020;11.720;2023-08-07T06:25:27;11.10;99.90
7648;DHT22;3866;48.020;11.720;2023-08-07T06:27:54;11.20;99.90
7648;DHT22;3866;48.020;11.720;2023-08-07T06:30:21;11.20;99.90
7648;DHT22;3866;48.020;11.720;2023-08-07T06:32:49;11.30;99.90
7648;DHT22;3866;48.020;11.720;2023-08-07T06:35:16;11.30;99.90
7648;DHT22;3866;48.020;11.720;2023-08-07T06:37:43;11.30;99.90
7648;DHT22;3866;48.020;11.720;2023-08-07T06:40:10;11.30;99.90
7648;DHT22;3866;48.020;11.720;2023-08-07T06:42:37;11.30;99.90
7648;DHT22;3866;48.020;11.720;2023-08-07T06:45:06;11.40;99.90
7648;DHT22;3866;48.020;11.720;2023-08-07T06:47:33;11.50;99.90
7648;DHT22;3866;48.020;11.720;2023-08-07T06:50:01;11.50;99.90
7648;DHT22;3866;48.020;11.720;2023-08-07T06:52:28;11.70;99.90
7648;DHT22;3866;48.020;11.720;2023-08-07T06:54:55;11.80;99.90
7648;DHT22;3866;48.020;11.720;2023-08-07T06:57:22;11.90;99.90
7648;DHT22;3866;48.020;11.720;2023-08-07T06:59:49;12.00;99.90
7648;DHT22;3866;48.020;11.720;2023-08-07T07:02:15;12.10;99.90
7648;DHT22;3866;48.020;11.720;2023-08-07T07:04:42;12.30;99.90
7648;DHT22;3866;48.020;11.720;2023-08-07T07:07:10;12.60;99.90
7648;DHT22;3866;48.020;11.720;2023-08-07T07:09:37;12.60;99.90
7648;DHT22;3866;48.020;11.720;2023-08-07T07:12:04;12.60;99.90
7648;DHT22;3866;48.020;11.720;2023-08-07T07:14:32;12.70;99.90
7648;DHT22;3866;48.020;11.720;2023-08-07T07:16:59;12.60;99.90
7648;DHT22;3866;48.020;11.720;2023-08-07T07:19:26;12.60;99.90
7648;DHT22;3866;48.020;11.720;2023-08-07T07:21:53;12.90;99.90
7648;DHT22;3866;48.020;11.720;2023-08-07T07:24:21;13.00;99.90
7648;DHT22;3866;48.020;11.720;2023-08-07T07:26:48;12.80;99.90
7648;DHT22;3866;48.020;11.720;2023-08-07T07:29:16;12.90;99.90
7648;DHT22;3866;48.020;11.720;2023-08-07T07:31:43;13.00;99.90
7648;DHT22;3866;48.020;11.720;2023-08-07T07:34:10;13.50;99.90
7648;DHT22;3866;48.020;11.720;2023-08-07T07:36:37;13.50;99.90
7648;DHT22;3866;48.020;11.720;2023-08-07T07:39:04;13.40;99.90
7648;DHT22;3866;48.020;11.720;2023-08-07T07:41:32;13.40;99.90
7648;DHT22;3866;48.020;11.720;2023-08-07T07:43:59;13.50;99.90
7648;DHT22;3866;48.020;11.720;2023-08-07T07:46:27;13.50;99.90
7648;DHT22;3866;48.020;11.720;2023-08-07T07:48:54;13.40;99.90
7648;DHT22;3866;48.020;11.720;2023-08-07T07:51:22;13.40;99.90
7648;DHT22;3866;48.020;11.720;2023-08-07T07:53:49;13.40;99.90
7648;DHT22;3866;48.020;11.720;2023-08-07T07:56:14;13.40;99.90
7648;DHT22;3866;48.020;11.720;2023-08-07T07:58:43;13.40;99.90
7648;DHT22;3866;48.020;11.720;2023-08-07T08:01:09;13.30;99.90
7648;DHT22;3866;48.020;11.720;2023-08-07T08:03:36;13.30;99.90
7648;DHT22;3866;48.020;11.720;2023-08-07T08:06:04;13.30;99.90
7648;DHT22;3866;48.020;11.720;2023-08-07T08:08:31;13.30;99.90
7648;DHT22;3866;48.020;11.720;2023-08-07T08:10:58;13.30;99.90
7648;DHT22;3866;48.020;11.720;2023-08-07T08:13:25;13.30;99.90
7648;DHT22;3866;48.020;11.720;2023-08-07T08:15:53;13.40;99.90
7648;DHT22;3866;48.020;11.720;2023-08-07T08:18:20;13.40;99.90
7648;DHT22;3866;48.020;11.720;2023-08-07T08:20:46;13.30;99.90
7648;DHT22;3866;48.020;11.720;2023-08-07T08:23:13;13.40;99.90
7648;DHT22;3866;48.020;11.720;2023-08-07T08:25:40;13.40;99.90
7648;DHT22;3866;48.020;11.720;2023-08-07T08:28:07;13.40;99.90
7648;DHT22;3866;48.020;11.720;2023-08-07T08:30:34;13.60;99.90
7648;DHT22;3866;48.020;11.720;2023-08-07T08:33:02;13.60;99.90
7648;DHT22;3866;48.020;11.720;2023-08-07T08:35:31;13.40;99.90
7648;DHT22;3866;48.020;11.720;2023-08-07T08:37:57;13.50;99.90
7648;DHT22;3866;48.020;11.720;2023-08-07T08:40:24;13.50;99.90
7648;DHT22;3866;48.020;11.720;2023-08-07T08:42:51;13.60;99.90
7648;DHT22;3866;48.020;11.720;2023-08-07T08:45:21;13.40;99.90
7648;DHT22;3866;48.020;11.720;2023-08-07T08:47:49;13.30;99.90
7648;DHT22;3866;48.020;11.720;2023-08-07T08:50:19;13.30;99.90
7648;DHT22;3866;48.020;11.720;2023-08-07T08:52:46;13.30;99.90
7648;DHT22;3866;48.020;11.720;2023-08-07T08:55:14;13.30;99.90
7648;DHT22;3866;48.020;11.720;2023-08-07T08:57:41;13.30;99.90
7648;DHT22;3866;48.020;11.720;2023-08-07T09:00:10;13.20;99.90
7648;DHT22;3866;48.020;11.720;2023-08-07T09:02:44;13.30;99.90
7648;DHT22;3866;48.020;11.720;2023-08-07T09:05:10;13.40;99.90
7648;DHT22;3866;48.020;11.720;2023-08-07T09:07:39;13.30;99.90
7648;DHT22;3866;48.020;11.720;2023-08-07T09:10:06;13.40;99.90
7648;DHT22;3866;48.020;11.720;2023-08-07T09:12:35;13.30;99.90
7648;DHT22;3866;48.020;11.720;2023-08-07T09:15:05;13.30;99.90
7648;DHT22;3866;48.020;11.720;2023-08-07T09:17:37;13.40;99.90
7648;DHT22;3866;48.020;11.720;2023-08-07T09:20:06;13.40;99.90
7648;DHT22;3866;48.020;11.720;2023-08-07T09:22:36;13.30;99.90
7648;DHT22;3866;48.020;11.720;2023-08-07T09:25:05;13.40;99.90
7648;DHT22;3866;48.020;11.720;2023-08-07T09:27:32;13.40;99.90
7648;DHT22;3866;48.020;11.720;2023-08-07T09:30:03;13.40;99.90
7648;DHT22;3866;48.020;11.720;2023-08-07T09:32:32;13.40;99.90
7648;DHT22;3866;48.020;11.720;2023-08-07T09:34:59;13.40;99.90
7648;DHT22;3866;48.020;11.720;2023-08-07T09:37:25;13.50;99.90
7648;DHT22;3866;48.020;11.720;2023-08-07T09:39:52;13.50;99.90
7648;DHT22;3866;48.020;11.720;2023-08-07T09:42:21;13.60;99.90
7648;DHT22;3866;48.020;11.720;2023-08-07T09:44:47;13.50;99.90
7648;DHT22;3866;48.020;11.720;2023-08-07T09:47:15;13.50;99.90
7648;DHT22;3866;48.020;11.720;2023-08-07T09:49:42;13.50;99.90
7648;DHT22;3866;48.020;11.720;2023-08-07T09:52:11;13.50;99.90
7648;DHT22;3866;48.020;11.720;2023-08-07T09:54:39;13.60;99.90
7648;DHT22;3866;48.020;11.720;2023-08-07T09:57:06;13.80;99.90
7648;DHT22;3866;48.020;11.720;2023-08-07T09:59:35;14.00;99.90
7648;DHT22;3866;48.020;11.720;2023-08-07T10:02:02;14.00;99.90
7648;DHT22;3866;48.020;11.720;2023-08-07T10:04:30;13.90;99.90
7648;DHT22;3866;48.020;11.720;2023-08-07T10:06:57;13.90;99.90
7648;DHT22;3866;48.020;11.720;2023-08-07T10:09:24;13.90;99.90
7648;DHT22;3866;48.020;11.720;2023-08-07T10:11:53;14.10;99.90
7648;DHT22;3866;48.020;11.720;2023-08-07T10:14:22;14.10;99.90
7648;DHT22;3866;48.020;11.720;2023-08-07T10:16:50;14.30;99.90
7648;DHT22;3866;48.020;11.720;2023-08-07T10:19:18;14.60;99.90
7648;DHT22;3866;48.020;11.720;2023-08-07T10:21:45;14.70;99.90
7648;DHT22;3866;48.020;11.720;2023-08-07T10:24:14;15.00;99.90
7648;DHT22;3866;48.020;11.720;2023-08-07T10:26:44;15.00;99.90
7648;DHT22;3866;48.020;11.720;2023-08-07T10:29:13;14.90;99.90
7648;DHT22;3866;48.020;11.720;2023-08-07T10:31:42;14.90;99.90
7648;DHT22;3866;48.020;11.720;2023-08-07T10:34:11;14.90;99.90
7648;DHT22;3866;48.020;11.720;2023-08-07T10:36:39;15.00;99.90
7648;DHT22;3866;48.020;11.720;2023-08-07T10:39:07;15.20;99.90
7648;DHT22;3866;48.020;11.720;2023-08-07T10:41:39;15.60;99.90
7648;DHT22;3866;48.020;11.720;2023-08-07T10:44:17;15.60;99.90
7648;DHT22;3866;48.020;11.720;2023-08-07T10:46:47;15.60;99.90
7648;DHT22;3866;48.020;11.720;2023-08-07T10:52:13;15.70;99.90
7648;DHT22;3866;48.020;11.720;2023-08-07T10:54:41;15.60;99.90
7648;DHT22;3866;48.020;11.720;2023-08-07T10:57:11;15.50;99.90
7648;DHT22;3866;48.020;11.720;2023-08-07T10:59:44;15.30;99.90
7648;DHT22;3866;48.020;11.720;2023-08-07T11:02:12;15.00;99.90
7648;DHT22;3866;48.020;11.720;2023-08-07T11:04:40;14.90;99.90
7648;DHT22;3866;48.020;11.720;2023-08-07T11:07:07;14.90;99.90
7648;DHT22;3866;48.020;11.720;2023-08-07T11:09:35;15.00;99.90
7648;DHT22;3866;48.020;11.720;2023-08-07T11:12:03;15.10;99.90
7648;DHT22;3866;48.020;11.720;2023-08-07T11:14:30;15.20;99.90
7648;DHT22;3866;48.020;11.720;2023-08-07T11:16:59;15.50;99.90
7648;DHT22;3866;48.020;11.720;2023-08-07T11:19:27;15.80;99.90
7648;DHT22;3866;48.020;11.720;2023-08-07T11:21:55;15.80;99.90
7648;DHT22;3866;48.020;11.720;2023-08-07T11:24:23;15.80;99.90
7648;DHT22;3866;48.020;11.720;2023-08-07T11:26:56;15.70;99.90
7648;DHT22;3866;48.020;11.720;2023-08-07T11:29:24;16.00;99.90
7648;DHT22;3866;48.020;11.720;2023-08-07T11:31:51;15.80;99.90
7648;DHT22;3866;48.020;11.720;2023-08-07T11:34:18;15.70;99.90
7648;DHT22;3866;48.020;11.720;2023-08-07T11:36:45;15.70;99.90
7648;DHT22;3866;48.020;11.720;2023-08-07T11:39:13;15.60;99.90
7648;DHT22;3866;48.020;11.720;2023-08-07T11:41:42;15.60;99.90
7648;DHT22;3866;48.020;11.720;2023-08-07T11:44:11;15.80;99.90
7648;DHT22;3866;48.020;11.720;2023-08-07T11:46:38;15.80;99.90
7648;DHT22;3866;48.020;11.720;2023-08-07T11:49:05;15.70;99.90
7648;DHT22;3866;48.020;11.720;2023-08-07T11:51:32;15.90;99.90
7648;DHT22;3866;48.020;11.720;2023-08-07T11:53:59;16.20;99.90
7648;DHT22;3866;48.020;11.720;2023-08-07T11:56:26;16.50;99.90
7648;DHT22;3866;48.020;11.720;2023-08-07T11:58:54;16.40;99.90
7648;DHT22;3866;48.020;11.720;2023-08-07T12:01:24;16.20;99.90
7648;DHT22;3866;48.020;11.720;2023-08-07T12:03:52;16.20;99.90
7648;DHT22;3866;48.020;11.720;2023-08-07T12:06:20;16.10;99.90
7648;DHT22;3866;48.020;11.720;2023-08-07T12:08:49;16.00;99.90
7648;DHT22;3866;48.020;11.720;2023-08-07T12:11:16;15.90;99.90
7648;DHT22;3866;48.020;11.720;2023-08-07T12:13:44;15.80;99.90
7648;DHT22;3866;48.020;11.720;2023-08-07T12:16:12;15.50;99.90
7648;DHT22;3866;48.020;11.720;2023-08-07T12:18:43;15.40;99.90
7648;DHT22;3866;48.020;11.720;2023-08-07T12:21:10;15.30;99.90
7648;DHT22;3866;48.020;11.720;2023-08-07T12:23:37;15.20;99.90
7648;DHT22;3866;48.020;11.720;2023-08-07T12:26:05;15.00;99.90
7648;DHT22;3866;48.020;11.720;2023-08-07T12:28:33;14.90;99.90
7648;DHT22;3866;48.020;11.720;2023-08-07T12:31:00;14.50;99.90
7648;DHT22;3866;48.020;11.720;2023-08-07T12:33:28;14.20;99.90
7648;DHT22;3866;48.020;11.720;2023-08-07T12:35:57;14.30;99.90
7648;DHT22;3866;48.020;11.720;2023-08-07T12:38:24;14.20;99.90
7648;DHT22;3866;48.020;11.720;2023-08-07T12:40:51;14.20;99.90
7648;DHT22;3866;48.020;11.720;2023-08-07T12:43:17;14.20;99.90
7648;DHT22;3866;48.020;11.720;2023-08-07T12:45:44;14.10;99.90
7648;DHT22;3866;48.020;11.720;2023-08-07T12:48:11;14.10;99.90
7648;DHT22;3866;48.020;11.720;2023-08-07T12:50:39;14.10;99.90
7648;DHT22;3866;48.020;11.720;2023-08-07T12:53:08;14.30;99.90
7648;DHT22;3866;48.020;11.720;2023-08-07T12:55:35;14.40;99.90
7648;DHT22;3866;48.020;11.720;2023-08-07T12:58:02;14.50;99.90
7648;DHT22;3866;48.020;11.720;2023-08-07T13:00:28;14.60;99.90
7648;DHT22;3866;48.020;11.720;2023-08-07T13:02:55;14.80;99.90
7648;DHT22;3866;48.020;11.720;2023-08-07T13:05:22;14.90;99.90
7648;DHT22;3866;48.020;11.720;2023-08-07T13:07:50;14.90;99.90
7648;DHT22;3866;48.020;11.720;2023-08-07T13:10:21;15.10;99.90
7648;DHT22;3866;48.020;11.720;2023-08-07T13:12:49;14.90;99.90
7648;DHT22;3866;48.020;11.720;2023-08-07T13:15:16;14.80;99.90
7648;DHT22;3866;48.020;11.720;2023-08-07T13:17:44;14.80;99.90
7648;DHT22;3866;48.020;11.720;2023-08-07T13:20:12;14.80;99.90
7648;DHT22;3866;48.020;11.720;2023-08-07T13:22:40;14.90;99.90
7648;DHT22;3866;48.020;11.720;2023-08-07T13:25:08;15.00;99.90
7648;DHT22;3866;48.020;11.720;2023-08-07T13:27:38;15.00;99.90
7648;DHT22;3866;48.020;11.720;2023-08-07T13:30:06;15.10;99.90
7648;DHT22;3866;48.020;11.720;2023-08-07T13:32:34;15.30;99.90
7648;DHT22;3866;48.020;11.720;2023-08-07T13:35:00;15.50;99.90
7648;DHT22;3866;48.020;11.720;2023-08-07T13:37:28;15.70;99.90
7648;DHT22;3866;48.020;11.720;2023-08-07T13:39:55;16.10;99.90
7648;DHT22;3866;48.020;11.720;2023-08-07T13:42:24;15.90;99.90
7648;DHT22;3866;48.020;11.720;2023-08-07T13:44:53;15.70;99.90
7648;DHT22;3866;48.020;11.720;2023-08-07T13:47:20;15.40;99.90
7648;DHT22;3866;48.020;11.720;2023-08-07T13:49:47;15.70;99.90
7648;DHT22;3866;48.020;11.720;2023-08-07T13:52:14;15.90;99.90
7648;DHT22;3866;48.020;11.720;2023-08-07T13:54:40;15.40;99.90
7648;DHT22;3866;48.020;11.720;2023-08-07T13:57:07;15.30;99.90
7648;DHT22;3866;48.020;11.720;2023-08-07T13:59:34;15.00;99.90
7648;DHT22;3866;48.020;11.720;2023-08-07T14:02:02;14.70;99.90
7648;DHT22;3866;48.020;11.720;2023-08-07T14:04:29;14.40;99.90
7648;DHT22;3866;48.020;11.720;2023-08-07T14:06:57;14.40;99.90
7648;DHT22;3866;48.020;11.720;2023-08-07T14:09:24;14.10;99.90
7648;DHT22;3866;48.020;11.720;2023-08-07T14:11:51;14.00;99.90
7648;DHT22;3866;48.020;11.720;2023-08-07T14:14:18;13.80;99.90
7648;DHT22;3866;48.020;11.720;2023-08-07T14:16:45;13.50;99.90
7648;DHT22;3866;48.020;11.720;2023-08-07T14:19:13;13.30;99.90
7648;DHT22;3866;48.020;11.720;2023-08-07T14:21:40;13.30;99.90
7648;DHT22;3866;48.020;11.720;2023-08-07T14:24:07;13.10;99.90
7648;DHT22;3866;48.020;11.720;2023-08-07T14:29:00;13.30;99.90
7648;DHT22;3866;48.020;11.720;2023-08-07T14:31:27;13.50;99.90
7648;DHT22;3866;48.020;11.720;2023-08-07T14:33:54;13.60;99.90
7648;DHT22;3866;48.020;11.720;2023-08-07T14:36:23;13.80;99.90
7648;DHT22;3866;48.020;11.720;2023-08-07T14:38:50;14.20;99.90
7648;DHT22;3866;48.020;11.720;2023-08-07T14:41:17;14.20;99.90
7648;DHT22;3866;48.020;11.720;2023-08-07T14:43:44;14.10;99.90
7648;DHT22;3866;48.020;11.720;2023-08-07T14:46:12;14.10;99.90
7648;DHT22;3866;48.020;11.720;2023-08-07T14:48:39;14.10;99.90
7648;DHT22;3866;48.020;11.720;2023-08-07T14:51:06;14.20;99.90
7648;DHT22;3866;48.020;11.720;2023-08-07T14:53:34;14.10;99.90
7648;DHT22;3866;48.020;11.720;2023-08-07T14:56:01;14.00;99.90
7648;DHT22;3866;48.020;11.720;2023-08-07T14:58:28;14.00;99.90
7648;DHT22;3866;48.020;11.720;2023-08-07T15:00:55;14.00;99.90
7648;DHT22;3866;48.020;11.720;2023-08-07T15:03:22;13.90;99.90
7648;DHT22;3866;48.020;11.720;2023-08-07T15:05:49;13.90;99.90
7648;DHT22;3866;48.020;11.720;2023-08-07T15:08:16;13.80;99.90
7648;DHT22;3866;48.020;11.720;2023-08-07T15:10:44;13.80;99.90
7648;DHT22;3866;48.020;11.720;2023-08-07T15:13:11;13.70;99.90
7648;DHT22;3866;48.020;11.720;2023-08-07T15:15:38;13.70;99.90
7648;DHT22;3866;48.020;11.720;2023-08-07T15:18:05;13.80;99.90
7648;DHT22;3866;48.020;11.720;2023-08-07T15:20:34;13.80;99.90
7648;DHT22;3866;48.020;11.720;2023-08-07T15:23:01;13.90;99.90
7648;DHT22;3866;48.020;11.720;2023-08-07T15:25:28;13.90;99.90
7648;DHT22;3866;48.020;11.720;2023-08-07T15:27:57;14.00;99.90
7648;DHT22;3866;48.020;11.720;2023-08-07T15:30:26;14.00;99.90
7648;DHT22;3866;48.020;11.720;2023-08-07T15:32:54;14.10;99.90
7648;DHT22;3866;48.020;11.720;2023-08-07T15:35:21;14.20;99.90
7648;DHT22;3866;48.020;11.720;2023-08-07T15:37:48;14.00;99.90
7648;DHT22;3866;48.020;11.720;2023-08-07T15:40:15;13.80;99.90
7648;DHT22;3866;48.020;11.720;2023-08-07T15:42:42;13.60;99.90
7648;DHT22;3866;48.020;11.720;2023-08-07T15:45:12;13.60;99.90
7648;DHT22;3866;48.020;11.720;2023-08-07T15:47:39;13.60;99.90
7648;DHT22;3866;48.020;11.720;2023-08-07T15:50:07;13.30;99.90
7648;DHT22;3866;48.020;11.720;2023-08-07T15:52:34;13.30;99.90
7648;DHT22;3866;48.020;11.720;2023-08-07T15:55:01;13.20;99.90